createdAt,value
2023-05-24T00:00:17.201Z,24.88
2023-05-24T00:01:16.159Z,24.88
2023-05-24T00:02:17.173Z,24.88
2023-05-24T00:03:17.300Z,24.83
2023-05-24T00:04:17.246Z,24.88
2023-05-24T00:05:16.219Z,24.86
2023-05-24T00:06:17.231Z,24.83
2023-05-24T00:07:16.224Z,24.85
2023-05-24T00:08:16.243Z,24.83
2023-05-24T00:09:17.241Z,24.85
2023-05-24T00:10:17.244Z,24.86
2023-05-24T00:11:17.261Z,24.83
2023-05-24T00:12:17.279Z,24.86
2023-05-24T00:13:16.296Z,24.85
2023-05-24T00:14:17.293Z,24.85
2023-05-24T00:15:17.309Z,24.85
2023-05-24T00:16:17.374Z,24.83
2023-05-24T00:17:17.339Z,24.83
2023-05-24T00:18:17.356Z,24.83
2023-05-24T00:19:16.344Z,24.86
2023-05-24T00:20:17.510Z,24.83
2023-05-24T00:21:17.358Z,24.85
2023-05-24T00:22:17.386Z,24.83
2023-05-24T00:23:17.387Z,24.82
2023-05-24T00:24:17.531Z,24.85
2023-05-24T00:25:17.431Z,24.85
2023-05-24T00:26:17.409Z,24.81
2023-05-24T00:27:17.410Z,24.85
2023-05-24T00:28:17.429Z,24.82
2023-05-24T00:29:17.440Z,24.83
2023-05-24T00:30:17.440Z,24.83
2023-05-24T00:31:17.513Z,24.83
2023-05-24T00:32:16.466Z,24.83
2023-05-24T00:33:17.488Z,24.85
2023-05-24T00:34:17.486Z,24.82
2023-05-24T00:35:16.478Z,24.81
2023-05-24T00:36:17.487Z,24.85
2023-05-24T00:37:17.486Z,24.83
2023-05-24T00:38:16.540Z,24.82
2023-05-24T00:39:17.520Z,24.82
2023-05-24T00:40:16.516Z,24.82
2023-05-24T00:41:17.525Z,24.85
2023-05-24T00:42:17.540Z,24.83
2023-05-24T00:43:16.561Z,24.82
2023-05-24T00:44:17.565Z,24.83
2023-05-24T00:45:17.591Z,24.82
2023-05-24T00:46:17.610Z,24.83
2023-05-24T00:47:16.605Z,24.81
2023-05-24T00:48:17.612Z,24.82
2023-05-24T00:49:17.613Z,24.79
2023-05-24T00:50:16.627Z,24.82
2023-05-24T00:51:16.651Z,24.81
2023-05-24T00:52:17.656Z,24.81
2023-05-24T00:53:17.674Z,24.81
2023-05-24T00:54:16.708Z,24.79
2023-05-24T00:55:16.690Z,24.82
2023-05-24T00:56:17.699Z,24.82
2023-05-24T00:57:16.713Z,24.81
2023-05-24T00:58:16.726Z,24.82
2023-05-24T00:59:17.727Z,24.79
2023-05-24T01:00:17.744Z,24.82
2023-05-24T01:01:17.948Z,24.81
2023-05-24T01:02:17.795Z,24.79
2023-05-24T01:03:16.875Z,24.81
2023-05-24T01:04:17.804Z,24.81
2023-05-24T01:05:17.808Z,24.81
2023-05-24T01:06:17.822Z,24.79
2023-05-24T01:07:17.843Z,24.81
2023-05-24T01:08:16.857Z,24.79
2023-05-24T01:09:16.855Z,24.81
2023-05-24T01:10:17.059Z,24.79
2023-05-24T01:11:17.894Z,24.77
2023-05-24T01:12:17.909Z,24.78
2023-05-24T01:13:17.941Z,24.81
2023-05-24T01:14:17.951Z,24.79
2023-05-24T01:15:17.979Z,24.79
2023-05-24T01:16:18.040Z,24.79
2023-05-24T01:17:18.004Z,24.79
2023-05-24T01:18:18.013Z,24.81
2023-05-24T01:19:18.026Z,24.78
2023-05-24T01:20:18.155Z,24.78
2023-05-24T01:21:18.055Z,24.79
2023-05-24T01:22:18.061Z,24.79
2023-05-24T01:23:17.082Z,24.79
2023-05-24T01:24:17.088Z,24.77
2023-05-24T01:25:17.118Z,24.79
2023-05-24T01:26:17.137Z,24.79
2023-05-24T01:27:18.135Z,24.78
2023-05-24T01:28:18.150Z,24.78
2023-05-24T01:29:18.165Z,24.77
2023-05-24T01:30:18.173Z,24.77
2023-05-24T01:31:17.273Z,24.77
2023-05-24T01:32:18.205Z,24.78
2023-05-24T01:33:17.221Z,24.78
2023-05-24T01:34:17.259Z,24.78
2023-05-24T01:35:17.257Z,24.81
2023-05-24T01:36:17.271Z,24.78
2023-05-24T01:37:18.290Z,24.78
2023-05-24T01:38:17.328Z,24.77
2023-05-24T01:39:17.332Z,24.77
2023-05-24T01:40:17.351Z,24.78
2023-05-24T01:41:18.352Z,24.78
2023-05-24T01:42:18.396Z,24.77
2023-05-24T01:43:18.410Z,24.75
2023-05-24T01:44:18.417Z,24.79
2023-05-24T01:45:18.438Z,24.79
2023-05-24T01:46:18.472Z,24.77
2023-05-24T01:47:18.457Z,24.78
2023-05-24T01:48:18.494Z,24.79
2023-05-24T01:49:17.493Z,24.74
2023-05-24T01:50:18.512Z,24.75
2023-05-24T01:51:17.540Z,24.77
2023-05-24T01:52:18.614Z,24.75
2023-05-24T01:53:17.566Z,24.78
2023-05-24T01:54:18.590Z,24.74
2023-05-24T01:55:17.624Z,24.77
2023-05-24T01:56:17.614Z,24.74
2023-05-24T01:57:18.636Z,24.75
2023-05-24T01:58:18.697Z,24.78
2023-05-24T01:59:18.672Z,24.77
2023-05-24T02:00:17.695Z,24.77
2023-05-24T02:01:17.801Z,24.75
2023-05-24T02:02:18.748Z,24.77
2023-05-24T02:03:17.800Z,24.75
2023-05-24T02:04:18.791Z,24.77
2023-05-24T02:05:18.801Z,24.72
2023-05-24T02:06:17.839Z,24.75
2023-05-24T02:07:17.848Z,24.77
2023-05-24T02:08:18.866Z,24.75
2023-05-24T02:09:17.949Z,24.74
2023-05-24T02:10:17.890Z,24.75
2023-05-24T02:11:18.920Z,24.74
2023-05-24T02:12:17.929Z,24.75
2023-05-24T02:13:18.958Z,24.75
2023-05-24T02:14:19.009Z,24.74
2023-05-24T02:15:19.007Z,24.75
2023-05-24T02:16:19.070Z,24.77
2023-05-24T02:17:19.045Z,24.74
2023-05-24T02:18:19.059Z,24.74
2023-05-24T02:19:18.150Z,24.75
2023-05-24T02:20:18.145Z,24.75
2023-05-24T02:21:19.122Z,24.74
2023-05-24T02:22:19.149Z,24.71
2023-05-24T02:23:18.161Z,24.75
2023-05-24T02:24:19.243Z,24.74
2023-05-24T02:25:18.218Z,24.77
2023-05-24T02:26:18.235Z,24.72
2023-05-24T02:27:19.247Z,24.74
2023-05-24T02:28:19.287Z,24.75
2023-05-24T02:29:19.297Z,24.72
2023-05-24T02:30:18.342Z,24.72
2023-05-24T02:31:19.384Z,24.72
2023-05-24T02:32:19.390Z,24.74
2023-05-24T02:33:18.379Z,24.72
2023-05-24T02:34:19.419Z,24.74
2023-05-24T02:35:19.439Z,24.71
2023-05-24T02:36:19.453Z,24.74
2023-05-24T02:37:18.473Z,24.72
2023-05-24T02:38:19.498Z,24.72
2023-05-24T02:39:18.521Z,24.72
2023-05-24T02:40:19.528Z,24.75
2023-05-24T02:41:19.618Z,24.74
2023-05-24T02:42:18.601Z,24.72
2023-05-24T02:43:19.607Z,24.71
2023-05-24T02:44:18.612Z,24.74
2023-05-24T02:45:19.638Z,24.70
2023-05-24T02:46:19.720Z,24.72
2023-05-24T02:47:18.783Z,24.70
2023-05-24T02:48:18.698Z,24.74
2023-05-24T02:49:18.724Z,24.72
2023-05-24T02:50:19.754Z,24.74
2023-05-24T02:51:19.754Z,24.74
2023-05-24T02:52:19.777Z,24.71
2023-05-24T02:53:19.807Z,24.72
2023-05-24T02:54:19.812Z,24.71
2023-05-24T02:55:18.832Z,24.71
2023-05-24T02:56:19.879Z,24.70
2023-05-24T02:57:18.881Z,24.70
2023-05-24T02:58:19.906Z,24.71
2023-05-24T02:59:18.932Z,24.70
2023-05-24T03:00:19.951Z,24.71
2023-05-24T03:01:19.990Z,24.72
2023-05-24T03:02:20.034Z,24.71
2023-05-24T03:03:20.163Z,24.72
2023-05-24T03:04:19.056Z,24.71
2023-05-24T03:05:19.088Z,24.70
2023-05-24T03:06:19.107Z,24.70
2023-05-24T03:07:20.125Z,24.70
2023-05-24T03:08:19.173Z,24.70
2023-05-24T03:09:20.202Z,24.68
2023-05-24T03:10:20.214Z,24.70
2023-05-24T03:11:20.213Z,24.71
2023-05-24T03:12:19.245Z,24.72
2023-05-24T03:13:20.256Z,24.70
2023-05-24T03:14:20.279Z,24.72
2023-05-24T03:15:20.307Z,24.71
2023-05-24T03:16:19.372Z,24.71
2023-05-24T03:17:20.362Z,24.71
2023-05-24T03:18:20.413Z,24.68
2023-05-24T03:19:20.419Z,24.71
2023-05-24T03:20:19.466Z,24.68
2023-05-24T03:21:20.579Z,24.68
2023-05-24T03:22:19.481Z,24.70
2023-05-24T03:23:20.507Z,24.68
2023-05-24T03:24:20.547Z,24.71
2023-05-24T03:25:20.555Z,24.72
2023-05-24T03:26:20.634Z,24.68
2023-05-24T03:27:19.613Z,24.67
2023-05-24T03:28:20.637Z,24.71
2023-05-24T03:29:19.679Z,24.70
2023-05-24T03:30:20.709Z,24.70
2023-05-24T03:31:20.736Z,24.68
2023-05-24T03:32:20.741Z,24.67
2023-05-24T03:33:20.768Z,24.68
2023-05-24T03:34:20.813Z,24.70
2023-05-24T03:35:20.822Z,24.68
2023-05-24T03:36:20.841Z,24.70
2023-05-24T03:37:19.889Z,24.70
2023-05-24T03:38:20.915Z,24.68
2023-05-24T03:39:19.917Z,24.68
2023-05-24T03:40:20.949Z,24.67
2023-05-24T03:41:20.978Z,24.71
2023-05-24T03:42:20.989Z,24.68
2023-05-24T03:43:20.022Z,24.68
2023-05-24T03:44:20.047Z,24.68
2023-05-24T03:45:34.490Z,24.68
2023-05-24T03:46:21.099Z,24.70
2023-05-24T03:47:21.090Z,24.65
2023-05-24T03:48:20.057Z,24.68
2023-05-24T03:49:20.047Z,24.68
2023-05-24T03:50:20.056Z,24.68
2023-05-24T03:51:21.023Z,24.68
2023-05-24T03:52:20.036Z,24.67
2023-05-24T03:53:21.605Z,24.67
2023-05-24T03:54:20.007Z,24.65
2023-05-24T03:55:21.001Z,24.67
2023-05-24T03:56:19.975Z,24.67
2023-05-24T03:57:19.977Z,24.65
2023-05-24T03:58:20.966Z,24.67
2023-05-24T03:59:20.951Z,24.65
2023-05-24T04:00:20.949Z,24.68
2023-05-24T04:01:32.636Z,24.68
2023-05-24T04:02:20.959Z,24.67
2023-05-24T04:03:20.107Z,24.67
2023-05-24T04:04:21.015Z,24.65
2023-05-24T04:05:20.911Z,24.68
2023-05-24T04:06:20.921Z,24.67
2023-05-24T04:07:20.903Z,24.67
2023-05-24T04:08:20.898Z,24.68
2023-05-24T04:09:20.893Z,24.68
2023-05-24T04:10:20.878Z,24.68
2023-05-24T04:11:20.854Z,24.67
2023-05-24T04:12:19.858Z,24.67
2023-05-24T04:13:20.841Z,24.65
2023-05-24T04:14:20.848Z,24.67
2023-05-24T04:15:19.842Z,24.65
2023-05-24T04:16:20.836Z,24.67
2023-05-24T04:17:20.981Z,24.65
2023-05-24T04:18:20.934Z,24.65
2023-05-24T04:19:20.805Z,24.62
2023-05-24T04:20:20.844Z,24.67
2023-05-24T04:21:19.805Z,24.64
2023-05-24T04:22:20.813Z,24.65
2023-05-24T04:23:20.769Z,24.65
2023-05-24T04:24:20.777Z,24.64
2023-05-24T04:25:19.771Z,24.65
2023-05-24T04:26:20.743Z,24.62
2023-05-24T04:27:20.743Z,24.64
2023-05-24T04:28:20.727Z,24.62
2023-05-24T04:29:19.737Z,24.62
2023-05-24T04:30:19.713Z,24.64
2023-05-24T04:31:19.722Z,24.65
2023-05-24T04:32:19.712Z,24.65
2023-05-24T04:33:19.693Z,24.64
2023-05-24T04:34:19.698Z,24.65
2023-05-24T04:35:19.678Z,24.67
2023-05-24T04:36:20.667Z,24.65
2023-05-24T04:37:20.669Z,24.65
2023-05-24T04:38:21.836Z,24.64
2023-05-24T04:39:19.665Z,24.64
2023-05-24T04:40:20.656Z,24.62
2023-05-24T04:41:20.658Z,24.65
2023-05-24T04:42:20.707Z,24.64
2023-05-24T04:43:20.725Z,24.62
2023-05-24T04:44:20.745Z,24.61
2023-05-24T04:45:19.763Z,24.64
2023-05-24T04:46:20.824Z,24.62
2023-05-24T04:47:19.831Z,24.61
2023-05-24T04:48:20.863Z,24.64
2023-05-24T04:49:20.908Z,24.61
2023-05-24T04:50:19.940Z,24.64
2023-05-24T04:51:20.990Z,24.62
2023-05-24T04:52:21.013Z,24.62
2023-05-24T04:53:21.041Z,24.62
2023-05-24T04:54:21.100Z,24.64
2023-05-24T04:55:21.109Z,24.62
2023-05-24T04:56:20.133Z,24.64
2023-05-24T04:57:21.160Z,24.62
2023-05-24T04:58:21.226Z,24.64
2023-05-24T04:59:20.232Z,24.62
2023-05-24T05:00:21.263Z,24.62
2023-05-24T05:01:21.343Z,24.64
2023-05-24T05:02:21.502Z,24.64
2023-05-24T05:03:21.561Z,24.62
2023-05-24T05:04:21.386Z,24.64
2023-05-24T05:05:21.403Z,24.62
2023-05-24T05:06:20.456Z,24.61
2023-05-24T05:07:21.505Z,24.62
2023-05-24T05:08:20.508Z,24.64
2023-05-24T05:09:21.565Z,24.62
2023-05-24T05:10:22.401Z,24.62
2023-05-24T05:11:21.560Z,24.64
2023-05-24T05:12:21.553Z,24.64
2023-05-24T05:13:21.557Z,24.64
2023-05-24T05:14:20.540Z,24.62
2023-05-24T05:15:20.533Z,24.61
2023-05-24T05:16:21.560Z,24.64
2023-05-24T05:17:21.515Z,24.62
2023-05-24T05:18:21.515Z,24.61
2023-05-24T05:19:20.513Z,24.61
2023-05-24T05:20:20.554Z,24.62
2023-05-24T05:21:20.503Z,24.62
2023-05-24T05:22:21.493Z,24.64
2023-05-24T05:23:20.484Z,24.62
2023-05-24T05:24:20.776Z,24.62
2023-05-24T05:25:21.478Z,24.64
2023-05-24T05:26:20.488Z,24.61
2023-05-24T05:27:20.460Z,24.61
2023-05-24T05:28:20.451Z,24.62
2023-05-24T05:29:23.519Z,24.62
2023-05-24T05:30:21.447Z,24.62
2023-05-24T05:31:20.422Z,24.62
2023-05-24T05:32:20.461Z,24.60
2023-05-24T05:33:21.494Z,24.64
2023-05-24T05:34:20.412Z,24.62
2023-05-24T05:35:20.452Z,24.62
2023-05-24T05:36:21.389Z,24.64
2023-05-24T05:37:21.374Z,24.64
2023-05-24T05:38:21.383Z,24.64
2023-05-24T05:39:21.370Z,24.62
2023-05-24T05:40:20.386Z,24.64
2023-05-24T05:41:21.349Z,24.64
2023-05-24T05:42:21.366Z,24.61
2023-05-24T05:43:21.328Z,24.62
2023-05-24T05:44:21.323Z,24.61
2023-05-24T05:45:20.317Z,24.61
2023-05-24T05:46:21.351Z,24.61
2023-05-24T05:47:20.324Z,24.64
2023-05-24T05:48:21.307Z,24.62
2023-05-24T05:49:21.301Z,24.62
2023-05-24T05:50:21.293Z,24.62
2023-05-24T05:51:21.279Z,24.64
2023-05-24T05:52:21.292Z,24.61
2023-05-24T05:53:20.285Z,24.62
2023-05-24T05:54:21.257Z,24.64
2023-05-24T05:55:20.235Z,24.62
2023-05-24T05:56:20.237Z,24.65
2023-05-24T05:57:21.245Z,24.64
2023-05-24T05:58:21.244Z,24.64
2023-05-24T05:59:21.224Z,24.64
2023-05-24T06:00:20.208Z,24.62
2023-05-24T06:01:21.201Z,24.65
2023-05-24T06:02:20.251Z,24.65
2023-05-24T06:03:21.341Z,24.71
2023-05-24T06:04:21.227Z,24.77
2023-05-24T06:05:20.187Z,24.88
2023-05-24T06:06:21.160Z,24.95
2023-05-24T06:07:20.174Z,24.99
2023-05-24T06:08:21.194Z,25.13
2023-05-24T06:09:21.152Z,25.20
2023-05-24T06:10:21.152Z,25.19
2023-05-24T06:11:21.159Z,25.26
2023-05-24T06:12:20.160Z,25.32
2023-05-24T06:13:21.163Z,25.32
2023-05-24T06:14:21.197Z,25.33
2023-05-24T06:15:21.157Z,25.34
2023-05-24T06:16:21.254Z,25.41
2023-05-24T06:17:21.286Z,25.40
2023-05-24T06:18:21.301Z,25.47
2023-05-24T06:19:21.362Z,25.48
2023-05-24T06:20:20.502Z,25.54
2023-05-24T06:21:20.460Z,25.57
2023-05-24T06:22:20.536Z,25.62
2023-05-24T06:23:21.600Z,25.64
2023-05-24T06:24:20.822Z,25.65
2023-05-24T06:25:21.701Z,25.65
2023-05-24T06:26:20.729Z,25.72
2023-05-24T06:27:21.795Z,25.74
2023-05-24T06:28:21.817Z,25.77
2023-05-24T06:29:22.070Z,25.75
2023-05-24T06:30:21.984Z,25.78
2023-05-24T06:31:20.953Z,25.75
2023-05-24T06:32:20.997Z,25.68
2023-05-24T06:33:21.040Z,25.75
2023-05-24T06:34:22.063Z,25.77
2023-05-24T06:35:21.108Z,25.75
2023-05-24T06:36:22.147Z,25.68
2023-05-24T06:37:22.191Z,25.75
2023-05-24T06:38:21.228Z,25.67
2023-05-24T06:39:22.284Z,25.68
2023-05-24T06:40:22.319Z,25.71
2023-05-24T06:41:22.376Z,25.75
2023-05-24T06:42:21.426Z,25.69
2023-05-24T06:43:21.452Z,25.74
2023-05-24T06:44:25.102Z,25.67
2023-05-24T06:45:22.502Z,25.69
2023-05-24T06:46:22.520Z,25.68
2023-05-24T06:47:22.705Z,25.67
2023-05-24T06:48:22.573Z,25.64
2023-05-24T06:49:22.479Z,25.67
2023-05-24T06:50:21.476Z,25.72
2023-05-24T06:51:22.467Z,25.74
2023-05-24T06:52:22.443Z,25.77
2023-05-24T06:53:22.482Z,25.74
2023-05-24T06:54:21.622Z,25.79
2023-05-24T06:55:22.427Z,25.79
2023-05-24T06:56:22.426Z,25.84
2023-05-24T06:57:22.427Z,25.86
2023-05-24T06:58:22.403Z,25.86
2023-05-24T06:59:22.648Z,25.85
2023-05-24T07:00:22.403Z,25.82
2023-05-24T07:01:22.412Z,25.82
2023-05-24T07:02:21.529Z,25.85
2023-05-24T07:03:22.394Z,25.82
2023-05-24T07:04:22.429Z,25.85
2023-05-24T07:05:21.362Z,25.85
2023-05-24T07:06:22.383Z,25.82
2023-05-24T07:07:22.346Z,25.84
2023-05-24T07:08:21.334Z,25.85
2023-05-24T07:09:22.351Z,25.82
2023-05-24T07:10:21.327Z,25.88
2023-05-24T07:11:22.348Z,25.86
2023-05-24T07:12:21.320Z,25.84
2023-05-24T07:13:21.332Z,25.89
2023-05-24T07:14:21.362Z,25.86
2023-05-24T07:15:22.415Z,25.88
2023-05-24T07:16:21.466Z,25.92
2023-05-24T07:17:22.502Z,25.91
2023-05-24T07:18:22.602Z,25.93
2023-05-24T07:19:22.635Z,25.96
2023-05-24T07:20:21.696Z,25.88
2023-05-24T07:21:22.677Z,25.91
2023-05-24T07:22:21.679Z,25.92
2023-05-24T07:23:21.760Z,25.91
2023-05-24T07:24:21.756Z,25.91
2023-05-24T07:25:21.785Z,25.93
2023-05-24T07:26:21.855Z,25.91
2023-05-24T07:27:21.870Z,25.89
2023-05-24T07:28:22.921Z,25.91
2023-05-24T07:29:22.997Z,25.88
2023-05-24T07:30:31.588Z,25.92
2023-05-24T07:31:22.992Z,25.86
2023-05-24T07:32:22.002Z,25.91
2023-05-24T07:33:23.045Z,25.84
2023-05-24T07:34:23.017Z,25.81
2023-05-24T07:35:22.974Z,25.74
2023-05-24T07:36:22.947Z,25.82
2023-05-24T07:37:21.960Z,25.79
2023-05-24T07:38:22.944Z,25.88
2023-05-24T07:39:22.941Z,25.75
2023-05-24T07:40:21.917Z,25.79
2023-05-24T07:41:21.914Z,25.81
2023-05-24T07:42:22.936Z,25.82
2023-05-24T07:43:22.907Z,25.69
2023-05-24T07:44:21.923Z,25.54
2023-05-24T07:45:22.882Z,25.65
2023-05-24T07:46:21.906Z,24.88
2023-05-24T07:47:21.869Z,23.95
2023-05-24T07:48:21.868Z,23.79
2023-05-24T07:49:23.153Z,23.76
2023-05-24T07:50:22.930Z,23.91
2023-05-24T07:51:22.851Z,24.01
2023-05-24T07:52:21.837Z,23.96
2023-05-24T07:53:21.825Z,24.12
2023-05-24T07:54:22.825Z,24.12
2023-05-24T07:55:22.828Z,24.10
2023-05-24T07:56:22.812Z,24.12
2023-05-24T07:57:22.803Z,24.24
2023-05-24T07:58:22.790Z,24.34
2023-05-24T07:59:21.778Z,24.41
2023-05-24T08:00:22.909Z,24.41
2023-05-24T08:01:22.769Z,24.44
2023-05-24T08:02:21.825Z,24.51
2023-05-24T08:03:21.947Z,24.58
2023-05-24T08:04:22.741Z,24.51
2023-05-24T08:05:22.737Z,24.55
2023-05-24T08:06:22.794Z,24.46
2023-05-24T08:07:21.887Z,24.46
2023-05-24T08:08:22.743Z,24.41
2023-05-24T08:09:22.703Z,24.36
2023-05-24T08:10:21.748Z,24.33
2023-05-24T08:11:21.691Z,24.21
2023-05-24T08:12:22.724Z,24.16
2023-05-24T08:13:22.686Z,24.15
2023-05-24T08:14:22.677Z,24.23
2023-05-24T08:15:22.697Z,24.17
2023-05-24T08:16:21.713Z,24.19
2023-05-24T08:17:22.742Z,24.19
2023-05-24T08:18:21.715Z,24.17
2023-05-24T08:19:21.703Z,24.29
2023-05-24T08:20:21.768Z,24.33
2023-05-24T08:21:22.861Z,24.40
2023-05-24T08:22:22.912Z,24.36
2023-05-24T08:23:22.803Z,24.38
2023-05-24T08:24:22.800Z,24.30
2023-05-24T08:25:22.805Z,24.29
2023-05-24T08:26:22.822Z,24.15
2023-05-24T08:27:22.841Z,24.12
2023-05-24T08:28:22.903Z,24.05
2023-05-24T08:29:21.880Z,23.98
2023-05-24T08:30:21.988Z,24.02
2023-05-24T08:31:21.959Z,23.99
2023-05-24T08:32:22.964Z,23.99
2023-05-24T08:33:22.950Z,24.08
2023-05-24T08:34:22.969Z,24.19
2023-05-24T08:35:22.349Z,24.21
2023-05-24T08:36:21.981Z,24.24
2023-05-24T08:37:23.008Z,24.10
2023-05-24T08:38:23.096Z,24.12
2023-05-24T08:39:23.048Z,24.06
2023-05-24T08:40:22.078Z,24.02
2023-05-24T08:41:23.114Z,23.82
2023-05-24T08:42:23.163Z,23.82
2023-05-24T08:43:23.169Z,23.92
2023-05-24T08:44:22.222Z,23.88
2023-05-24T08:45:23.677Z,23.85
2023-05-24T08:46:23.337Z,23.85
2023-05-24T08:47:23.366Z,23.79
2023-05-24T08:48:22.465Z,23.84
2023-05-24T08:49:22.411Z,23.86
2023-05-24T08:50:22.449Z,23.91
2023-05-24T08:51:23.474Z,24.02
2023-05-24T08:52:23.497Z,23.98
2023-05-24T08:53:23.526Z,23.95
2023-05-24T08:54:22.803Z,23.82
2023-05-24T08:55:23.679Z,23.72
2023-05-24T08:56:23.663Z,23.69
2023-05-24T08:57:23.728Z,23.61
2023-05-24T08:58:23.757Z,23.62
2023-05-24T08:59:23.814Z,23.47
2023-05-24T09:00:23.856Z,23.50
2023-05-24T09:01:22.916Z,23.58
2023-05-24T09:02:22.961Z,23.69
2023-05-24T09:03:24.227Z,23.64
2023-05-24T09:04:23.190Z,23.78
2023-05-24T09:05:23.074Z,23.86
2023-05-24T09:06:24.096Z,23.93
2023-05-24T09:07:24.174Z,23.92
2023-05-24T09:08:24.169Z,23.92
2023-05-24T09:09:23.239Z,23.98
2023-05-24T09:10:24.316Z,23.85
2023-05-24T09:11:23.255Z,23.91
2023-05-24T09:12:35.733Z,23.82
2023-05-24T09:13:24.307Z,23.75
2023-05-24T09:14:23.279Z,23.78
2023-05-24T09:15:23.285Z,23.78
2023-05-24T09:16:24.299Z,23.71
2023-05-24T09:17:23.257Z,23.76
2023-05-24T09:18:23.323Z,23.74
2023-05-24T09:19:23.252Z,23.74
2023-05-24T09:20:24.293Z,23.75
2023-05-24T09:21:24.222Z,23.85
2023-05-24T09:22:23.227Z,23.72
2023-05-24T09:23:23.231Z,23.75
2023-05-24T09:24:24.209Z,23.64
2023-05-24T09:25:24.237Z,23.64
2023-05-24T09:26:24.352Z,23.72
2023-05-24T09:27:24.272Z,23.74
2023-05-24T09:28:24.304Z,23.79
2023-05-24T09:29:24.322Z,23.84
2023-05-24T09:30:23.380Z,23.82
2023-05-24T09:31:24.416Z,23.78
2023-05-24T09:32:23.458Z,23.62
2023-05-24T09:33:23.465Z,23.57
2023-05-24T09:34:24.504Z,23.61
2023-05-24T09:35:24.561Z,23.37
2023-05-24T09:36:24.622Z,23.43
2023-05-24T09:37:28.266Z,23.53
2023-05-24T09:38:24.685Z,23.54
2023-05-24T09:39:23.655Z,23.51
2023-05-24T09:40:23.655Z,23.58
2023-05-24T09:41:23.657Z,23.60
2023-05-24T09:42:24.751Z,23.56
2023-05-24T09:43:26.258Z,23.57
2023-05-24T09:44:23.646Z,23.47
2023-05-24T09:45:23.616Z,23.48
2023-05-24T09:46:23.652Z,23.57
2023-05-24T09:47:24.613Z,23.39
2023-05-24T09:48:24.584Z,23.41
2023-05-24T09:49:24.578Z,23.43
2023-05-24T09:50:23.690Z,23.53
2023-05-24T09:51:24.713Z,23.34
2023-05-24T09:52:24.560Z,23.46
2023-05-24T09:53:24.571Z,23.54
2023-05-24T09:54:23.559Z,23.56
2023-05-24T09:55:23.570Z,23.47
2023-05-24T09:56:24.540Z,23.51
2023-05-24T09:57:23.532Z,23.62
2023-05-24T09:58:23.585Z,23.74
2023-05-24T09:59:23.525Z,23.72
2023-05-24T10:00:23.706Z,23.79
2023-05-24T10:01:24.560Z,23.92
2023-05-24T10:02:24.502Z,24.01
2023-05-24T10:03:24.614Z,23.96
2023-05-24T10:04:24.600Z,23.99
2023-05-24T10:05:23.493Z,23.93
2023-05-24T10:06:24.474Z,24.08
2023-05-24T10:07:24.477Z,24.08
2023-05-24T10:08:25.196Z,24.16
2023-05-24T10:09:24.442Z,24.19
2023-05-24T10:10:23.483Z,24.17
2023-05-24T10:11:24.448Z,24.24
2023-05-24T10:12:24.426Z,24.21
2023-05-24T10:13:24.431Z,24.29
2023-05-24T10:14:23.447Z,24.29
2023-05-24T10:15:24.459Z,24.30
2023-05-24T10:16:23.423Z,24.33
2023-05-24T10:17:24.473Z,24.31
2023-05-24T10:18:24.384Z,24.01
2023-05-24T10:19:24.390Z,23.99
2023-05-24T10:20:24.481Z,23.95
2023-05-24T10:21:24.207Z,23.92
2023-05-24T10:22:24.357Z,23.88
2023-05-24T10:23:24.340Z,23.86
2023-05-24T10:24:24.336Z,23.92
2023-05-24T10:25:23.324Z,23.92
2023-05-24T10:26:24.321Z,23.75
2023-05-24T10:27:23.316Z,23.88
2023-05-24T10:28:23.317Z,23.85
2023-05-24T10:29:24.287Z,23.89
2023-05-24T10:30:24.325Z,23.89
2023-05-24T10:31:23.368Z,23.95
2023-05-24T10:32:24.384Z,23.98
2023-05-24T10:33:23.263Z,23.95
2023-05-24T10:34:23.272Z,24.01
2023-05-24T10:35:24.252Z,24.03
2023-05-24T10:36:24.238Z,23.92
2023-05-24T10:37:23.249Z,23.93
2023-05-24T10:38:24.262Z,23.89
2023-05-24T10:39:24.277Z,23.88
2023-05-24T10:40:24.312Z,23.84
2023-05-24T10:41:24.331Z,23.72
2023-05-24T10:42:24.386Z,23.60
2023-05-24T10:43:24.451Z,23.57
2023-05-24T10:44:23.468Z,23.53
2023-05-24T10:45:24.539Z,23.60
2023-05-24T10:46:24.660Z,23.67
2023-05-24T10:47:23.647Z,23.76
2023-05-24T10:48:24.596Z,23.91
2023-05-24T10:49:24.593Z,23.96
2023-05-24T10:50:24.608Z,24.09
2023-05-24T10:51:24.651Z,24.16
2023-05-24T10:52:24.699Z,24.26
2023-05-24T10:53:24.767Z,24.37
2023-05-24T10:54:23.824Z,24.41
2023-05-24T10:55:24.874Z,24.46
2023-05-24T10:56:24.940Z,24.50
2023-05-24T10:57:24.964Z,24.55
2023-05-24T10:58:23.983Z,24.58
2023-05-24T10:59:24.018Z,24.65
2023-05-24T11:00:34.651Z,24.72
2023-05-24T11:01:25.245Z,24.75
2023-05-24T11:02:24.229Z,24.75
2023-05-24T11:03:24.056Z,24.74
2023-05-24T11:04:24.025Z,24.78
2023-05-24T11:05:25.064Z,24.74
2023-05-24T11:06:24.020Z,24.79
2023-05-24T11:07:25.005Z,24.78
2023-05-24T11:08:23.998Z,24.81
2023-05-24T11:09:24.992Z,24.81
2023-05-24T11:10:25.047Z,24.81
2023-05-24T11:11:27.417Z,24.82
2023-05-24T11:12:24.968Z,24.86
2023-05-24T11:13:24.971Z,24.85
2023-05-24T11:14:24.976Z,24.86
2023-05-24T11:15:24.970Z,24.86
2023-05-24T11:16:25.011Z,24.86
2023-05-24T11:17:24.986Z,24.85
2023-05-24T11:18:24.997Z,24.83
2023-05-24T11:19:24.915Z,24.83
2023-05-24T11:20:25.017Z,24.86
2023-05-24T11:21:24.963Z,24.89
2023-05-24T11:22:24.973Z,24.93
2023-05-24T11:23:23.994Z,24.96
2023-05-24T11:24:24.005Z,24.96
2023-05-24T11:25:24.010Z,24.95
2023-05-24T11:26:24.016Z,24.95
2023-05-24T11:27:25.047Z,24.99
2023-05-24T11:28:25.097Z,25.05
2023-05-24T11:29:25.059Z,25.02
2023-05-24T11:30:24.059Z,25.07
2023-05-24T11:31:25.095Z,25.06
2023-05-24T11:32:25.835Z,25.10
2023-05-24T11:33:24.078Z,25.10
2023-05-24T11:34:24.136Z,25.13
2023-05-24T11:35:25.058Z,25.20
2023-05-24T11:36:25.070Z,25.16
2023-05-24T11:38:25.163Z,25.23
2023-05-24T11:39:25.055Z,25.20
2023-05-24T11:40:25.079Z,25.17
2023-05-24T11:41:24.060Z,25.17
2023-05-24T11:42:24.070Z,25.12
2023-05-24T11:43:25.071Z,25.13
2023-05-24T11:44:25.052Z,25.12
2023-05-24T11:45:25.064Z,25.09
2023-05-24T11:46:25.143Z,25.16
2023-05-24T11:47:24.100Z,25.12
2023-05-24T11:48:25.033Z,25.12
2023-05-24T11:49:24.023Z,25.07
2023-05-24T11:50:26.616Z,25.09
2023-05-24T11:51:24.029Z,25.09
2023-05-24T11:52:24.023Z,25.05
2023-05-24T11:53:25.020Z,25.07
2023-05-24T11:54:25.013Z,25.06
2023-05-24T11:55:24.992Z,25.03
2023-05-24T11:56:24.997Z,25.02
2023-05-24T11:57:24.980Z,24.99
2023-05-24T11:58:24.965Z,25.00
2023-05-24T11:59:24.955Z,24.98
2023-05-24T12:00:23.961Z,24.96
2023-05-24T12:01:24.967Z,24.98
2023-05-24T12:02:25.006Z,24.95
2023-05-24T12:03:24.098Z,24.96
2023-05-24T12:04:23.988Z,24.96
2023-05-24T12:05:24.933Z,25.07
2023-05-24T12:06:24.946Z,25.12
2023-05-24T12:07:24.906Z,25.24
2023-05-24T12:08:23.892Z,25.26
2023-05-24T12:09:24.926Z,25.38
2023-05-24T12:10:24.895Z,25.43
2023-05-24T12:11:23.888Z,25.51
2023-05-24T12:12:30.798Z,25.45
2023-05-24T12:13:24.882Z,25.48
2023-05-24T12:14:24.865Z,25.48
2023-05-24T12:15:24.844Z,25.50
2023-05-24T12:16:24.949Z,25.47
2023-05-24T12:17:24.878Z,25.43
2023-05-24T12:18:25.220Z,25.52
2023-05-24T12:20:24.818Z,25.51
2023-05-24T12:21:24.803Z,25.55
2023-05-24T12:22:24.823Z,25.50
2023-05-24T12:23:23.793Z,25.48
2023-05-24T12:24:24.799Z,25.57
2023-05-24T12:25:23.784Z,25.58
2023-05-24T12:26:24.774Z,25.62
2023-05-24T12:27:24.758Z,25.54
2023-05-24T12:28:23.756Z,25.54
2023-05-24T12:29:23.741Z,25.61
2023-05-24T12:30:23.734Z,25.60
2023-05-24T12:31:23.790Z,25.62
2023-05-24T12:32:24.785Z,25.67
2023-05-24T12:33:24.729Z,25.65
2023-05-24T12:34:23.716Z,25.62
2023-05-24T12:35:24.707Z,25.61
2023-05-24T12:36:24.693Z,25.62
2023-05-24T12:37:23.701Z,25.69
2023-05-24T12:38:24.721Z,25.71
2023-05-24T12:39:23.672Z,25.72
2023-05-24T12:40:23.678Z,25.71
2023-05-24T12:41:23.670Z,25.72
2023-05-24T12:42:24.652Z,25.75
2023-05-24T12:43:24.648Z,25.78
2023-05-24T12:44:24.652Z,25.82
2023-05-24T12:45:24.663Z,25.79
2023-05-24T12:46:23.761Z,25.82
2023-05-24T12:47:23.862Z,25.84
2023-05-24T12:48:23.806Z,25.81
2023-05-24T12:49:23.832Z,25.79
2023-05-24T12:50:24.897Z,25.78
2023-05-24T12:51:25.114Z,25.82
2023-05-24T12:52:24.718Z,25.82
2023-05-24T12:53:24.009Z,25.85
2023-05-24T12:54:25.120Z,25.78